Time;durP1;ratioP1;P1;durP2;ratioP2;P2;SDS_P1;SDS_P2;PMS_P1;PMS_P2;Temp;Humidity;BMP_temperature;BMP_pressure;BME280_temperature;BME280_humidity;BME280_pressure;Samples;Min_cycle;Max_cycle;Signal;HPM_P1;HPM_P2
2023/04/22 00:02:15;;;;;;;17.80;7.30;;;;;;;11.18;58.88;99919.36;105117;1257;63106;-45
2023/04/22 00:04:44;;;;;;;16.90;6.90;;;;;;;11.17;58.94;99920.31;104987;1254;65587;-45
2023/04/22 00:07:13;;;;;;;18.40;7.60;;;;;;;11.21;59.03;99915.38;105264;1254;59679;-45
2023/04/22 00:09:40;;;;;;;16.90;7.20;;;;;;;11.24;59.04;99911.39;105050;1254;59765;-45
2023/04/22 00:12:07;;;;;;;15.00;7.00;;;;;;;11.25;59.08;99912.36;108581;1253;64990;-46
2023/04/22 00:14:35;;;;;;;15.80;7.00;;;;;;;11.25;59.06;99909.92;105855;1257;62573;-45
2023/04/22 00:17:02;;;;;;;15.80;7.60;;;;;;;11.24;59.09;99911.92;105145;1254;65502;-51
2023/04/22 00:19:30;;;;;;;15.00;7.60;;;;;;;11.21;59.14;99908.92;105773;1254;59769;-45
2023/04/22 00:21:57;;;;;;;14.30;7.80;;;;;;;11.19;59.10;99907.29;108440;1255;59552;-46
2023/04/22 00:24:24;;;;;;;17.00;7.30;;;;;;;11.16;59.21;99905.05;106149;1254;64080;-46
2023/04/22 00:26:51;;;;;;;23.90;7.40;;;;;;;11.18;59.14;99907.95;108555;1254;63394;-46
2023/04/22 00:29:17;;;;;;;19.00;8.10;;;;;;;11.20;59.12;99912.98;108307;1254;65024;-46
2023/04/22 00:31:44;;;;;;;16.30;7.50;;;;;;;11.21;59.24;99909.75;108544;1260;58043;-46
2023/04/22 00:34:11;;;;;;;17.30;7.60;;;;;;;11.20;59.24;99907.77;108617;1254;58465;-46
2023/04/22 00:36:38;;;;;;;14.70;7.50;;;;;;;11.16;59.23;99905.48;108598;1254;65932;-47
2023/04/22 00:39:05;;;;;;;15.90;7.40;;;;;;;11.06;59.39;99901.77;108583;1254;64867;-46
2023/04/22 00:41:32;;;;;;;15.60;7.40;;;;;;;10.97;59.40;99900.88;108566;1253;65532;-46
2023/04/22 00:43:59;;;;;;;13.10;7.50;;;;;;;10.89;59.51;99900.16;108488;1254;58395;-47
2023/04/22 00:46:26;;;;;;;18.30;7.60;;;;;;;10.79;59.81;99899.04;108591;1255;60217;-46
2023/04/22 00:48:53;;;;;;;15.50;7.60;;;;;;;10.79;60.00;99903.31;108547;1257;65687;-46
2023/04/22 00:51:20;;;;;;;19.30;7.60;;;;;;;10.83;60.02;99899.34;108513;1254;62361;-46
2023/04/22 00:53:46;;;;;;;17.60;6.90;;;;;;;10.84;60.07;99897.77;108600;1254;64907;-47
2023/04/22 00:56:13;;;;;;;14.70;7.30;;;;;;;10.83;59.94;99897.50;108451;1253;60047;-47
2023/04/22 00:58:40;;;;;;;13.50;7.30;;;;;;;10.76;59.98;99897.43;108551;1254;59386;-47
2023/04/22 01:01:06;;;;;;;17.40;8.20;;;;;;;10.65;60.08;99902.62;108671;1257;65013;-46
2023/04/22 01:03:35;;;;;;;14.20;7.70;;;;;;;10.57;60.39;99906.95;108623;1253;64043;-46
2023/04/22 01:06:02;;;;;;;16.90;7.90;;;;;;;10.56;60.66;99912.34;108359;1253;65447;-46
2023/04/22 01:08:29;;;;;;;16.70;7.90;;;;;;;10.61;60.68;99918.20;108558;1254;59002;-47
2023/04/22 01:10:56;;;;;;;18.70;8.10;;;;;;;10.68;60.54;99915.33;108524;1253;59394;-46
2023/04/22 01:13:23;;;;;;;13.00;8.50;;;;;;;10.71;60.40;99912.41;108596;1257;65189;-46
2023/04/22 01:15:50;;;;;;;21.20;8.30;;;;;;;10.72;60.28;99913.05;108554;1254;61469;-47
2023/04/22 01:18:17;;;;;;;20.10;8.90;;;;;;;10.71;60.25;99916.13;108507;1253;65521;-46
2023/04/22 01:20:44;;;;;;;14.40;8.10;;;;;;;10.69;60.08;99915.60;105732;1254;59285;-46
2023/04/22 01:23:17;;;;;;;18.50;8.60;;;;;;;10.65;60.12;99917.02;104981;1254;59707;-46
2023/04/22 01:25:45;;;;;;;17.00;8.60;;;;;;;10.59;60.11;99917.48;108560;1254;64197;-47
2023/04/22 01:28:12;;;;;;;19.30;8.90;;;;;;;10.58;60.12;99917.23;108536;1254;62852;-47
2023/04/22 01:30:39;;;;;;;17.00;9.20;;;;;;;10.59;60.08;99918.38;108558;1253;66124;-47
2023/04/22 01:33:08;;;;;;;16.90;8.60;;;;;;;10.57;60.15;99918.00;108371;1253;59267;-47
2023/04/22 01:35:38;;;;;;;15.80;8.70;;;;;;;10.55;60.16;99918.04;108476;1254;58045;-47
2023/04/22 01:38:05;;;;;;;17.00;9.20;;;;;;;10.53;60.18;99916.10;108470;1254;65215;-46
2023/04/22 01:40:33;;;;;;;19.40;9.50;;;;;;;10.50;60.14;99916.77;108534;1253;61171;-47
2023/04/22 01:43:00;;;;;;;15.00;8.20;;;;;;;10.45;60.11;99916.80;108494;1260;64043;-46
2023/04/22 01:45:26;;;;;;;14.40;8.30;;;;;;;10.39;60.09;99916.98;108565;1253;60342;-47
2023/04/22 01:47:53;;;;;;;14.10;8.40;;;;;;;10.37;60.15;99915.22;108561;1253;59824;-47
2023/04/22 01:50:20;;;;;;;15.30;8.80;;;;;;;10.39;60.07;99920.10;108519;1253;64260;-47
2023/04/22 01:52:47;;;;;;;14.80;8.60;;;;;;;10.39;60.05;99915.73;108245;1257;62809;-47
2023/04/22 01:55:14;;;;;;;15.00;8.50;;;;;;;10.35;59.95;99910.47;104991;1254;65418;-46
2023/04/22 01:57:42;;;;;;;16.80;8.80;;;;;;;10.28;60.21;99915.09;104926;1260;59646;-45
2023/04/22 02:00:10;;;;;;;13.80;8.40;;;;;;;10.24;60.18;99918.76;108483;1259;57957;-46
2023/04/22 02:02:40;;;;;;;17.20;8.70;;;;;;;10.19;60.28;99920.92;108586;1253;65379;-46
2023/04/22 02:05:07;;;;;;;21.20;9.70;;;;;;;10.14;60.33;99924.39;108548;1254;63145;-46
2023/04/22 02:07:35;;;;;;;15.00;9.10;;;;;;;10.05;60.32;99924.91;108600;1254;66192;-46
2023/04/22 02:10:05;;;;;;;13.80;8.50;;;;;;;10.01;60.30;99927.71;108581;1253;58646;-46
2023/04/22 02:12:32;;;;;;;17.90;10.50;;;;;;;10.02;60.29;99928.36;106710;1254;62563;-47
2023/04/22 02:14:58;;;;;;;17.20;10.60;;;;;;;10.01;60.23;99929.06;105181;1257;65174;-46
2023/04/22 02:17:26;;;;;;;19.20;10.90;;;;;;;9.99;60.34;99928.41;105638;1253;62162;-46
2023/04/22 02:19:52;;;;;;;20.80;11.40;;;;;;;9.95;60.32;99929.31;108279;1254;64825;-46
2023/04/22 02:22:20;;;;;;;18.30;11.00;;;;;;;9.91;60.35;99929.64;105012;1254;59993;-46
2023/04/22 02:24:50;;;;;;;17.40;11.00;;;;;;;9.83;60.22;99931.13;108472;1256;57668;-46
2023/04/22 02:27:16;;;;;;;21.30;10.20;;;;;;;9.76;60.29;99932.31;108467;1254;66877;-46
2023/04/22 02:29:44;;;;;;;16.60;9.30;;;;;;;9.69;60.47;99925.69;107103;1259;61625;-46
2023/04/22 02:32:11;;;;;;;18.30;10.10;;;;;;;9.62;60.80;99927.35;105105;1254;64956;-46
2023/04/22 02:34:39;;;;;;;21.10;9.20;;;;;;;9.54;61.07;99931.12;108591;1254;57680;-47
2023/04/22 02:37:05;;;;;;;16.50;9.10;;;;;;;9.53;61.16;99932.48;108545;1254;59434;-46
2023/04/22 02:39:33;;;;;;;12.00;7.90;;;;;;;9.54;61.09;99929.41;108415;1254;65341;-46
2023/04/22 02:42:00;;;;;;;14.10;8.70;;;;;;;9.54;61.09;99928.63;108515;1254;62534;-46
2023/04/22 02:44:27;;;;;;;14.70;9.10;;;;;;;9.54;61.16;99930.81;108567;1254;63829;-46
2023/04/22 02:46:54;;;;;;;13.90;9.00;;;;;;;9.53;61.21;99933.20;108558;1254;58648;-47
2023/04/22 02:49:21;;;;;;;15.40;8.50;;;;;;;9.53;61.21;99932.41;108583;1254;59242;-47
2023/04/22 02:51:48;;;;;;;16.40;8.80;;;;;;;9.55;61.10;99935.73;106892;1259;65049;-46
2023/04/22 02:54:14;;;;;;;17.10;9.20;;;;;;;9.54;60.98;99935.49;108581;1254;62506;-46
2023/04/22 02:56:41;;;;;;;14.30;9.40;;;;;;;9.51;60.99;99936.80;108577;1253;65112;-46
2023/04/22 02:59:08;;;;;;;16.80;9.20;;;;;;;9.47;61.10;99937.67;108508;1254;60191;-46
2023/04/22 03:01:35;;;;;;;13.70;8.20;;;;;;;9.43;61.35;99937.13;108592;1257;60462;-46
2023/04/22 03:04:02;;;;;;;15.60;8.10;;;;;;;9.45;61.47;99941.70;108472;1259;65908;-46
2023/04/22 03:06:30;;;;;;;18.90;8.30;;;;;;;9.50;61.62;99939.69;106751;1254;63240;-46
2023/04/22 03:08:57;;;;;;;16.00;8.30;;;;;;;9.54;61.54;99942.34;105821;1254;65244;-46
2023/04/22 03:11:25;;;;;;;13.40;8.60;;;;;;;9.54;61.43;99944.08;105030;1254;61238;-46
2023/04/22 03:13:52;;;;;;;16.70;9.40;;;;;;;9.50;61.43;99947.88;108467;1257;58384;-46
2023/04/22 03:16:24;;;;;;;15.80;10.10;;;;;;;9.47;61.39;99950.38;108508;1253;65171;-46
2023/04/22 03:18:51;;;;;;;18.40;9.50;;;;;;;9.45;61.39;99948.98;108491;1254;62658;-46
2023/04/22 03:21:18;;;;;;;20.30;11.30;;;;;;;9.42;61.30;99950.80;108422;1255;63805;-46
2023/04/22 03:23:45;;;;;;;21.90;12.70;;;;;;;9.40;61.23;99952.10;108446;1254;58911;-46
2023/04/22 03:26:12;;;;;;;24.10;13.30;;;;;;;9.38;61.08;99956.95;108477;1259;61558;-46
2023/04/22 03:28:39;;;;;;;19.90;13.10;;;;;;;9.36;61.05;99957.45;108437;1254;64829;-46
2023/04/22 03:31:06;;;;;;;26.10;12.10;;;;;;;9.35;60.79;99957.05;108479;1254;62694;-46
2023/04/22 03:33:34;;;;;;;19.00;10.60;;;;;;;9.36;60.59;99961.66;108590;1254;65491;-46
2023/04/22 03:36:06;;;;;;;21.90;10.40;;;;;;;9.42;60.40;99968.19;108570;1256;59793;-46
2023/04/22 03:38:33;;;;;;;17.90;9.40;;;;;;;9.48;60.18;99970.26;108452;1254;58462;-47
2023/04/22 03:41:00;;;;;;;18.20;9.80;;;;;;;9.55;59.88;99969.42;108447;1254;66459;-46
2023/04/22 03:43:46;;;;;;;12.60;6.20;;;;;;;9.63;59.55;99974.32;108497;1253;63751;-46
2023/04/22 03:46:14;;;;;;;18.80;10.90;;;;;;;9.63;59.47;99972.90;108434;1252;64884;-46
2023/04/22 03:48:47;;;;;;;17.40;9.50;;;;;;;9.62;59.44;99974.60;108364;1254;60280;-46
2023/04/22 03:51:22;;;;;;;18.00;10.70;;;;;;;9.61;59.35;99975.20;108447;1254;60228;-46
2023/04/22 03:53:51;;;;;;;17.70;10.10;;;;;;;9.61;59.28;99978.03;108363;1253;63731;-46
2023/04/22 03:56:20;;;;;;;18.20;9.40;;;;;;;9.60;59.23;99981.73;108476;1254;62439;-47
2023/04/22 03:58:46;;;;;;;13.10;9.20;;;;;;;9.58;59.27;99985.08;108457;1252;65906;-46
2023/04/22 04:01:14;;;;;;;12.90;8.90;;;;;;;9.50;59.60;99989.79;108407;1253;60661;-47
2023/04/22 04:03:43;;;;;;;15.40;9.40;;;;;;;9.48;59.81;99992.52;108444;1254;59300;-48
2023/04/22 04:06:11;;;;;;;15.40;8.80;;;;;;;9.54;59.85;99996.75;108455;1254;64991;-45
2023/04/22 04:08:38;;;;;;;15.00;9.00;;;;;;;9.67;59.79;99999.56;108440;1254;63014;-46
2023/04/22 04:11:04;;;;;;;14.30;8.70;;;;;;;9.82;59.74;100004.33;105862;1257;66141;-45
2023/04/22 04:13:32;;;;;;;13.60;8.30;;;;;;;9.97;59.59;100005.30;105022;1257;60531;-45
2023/04/22 04:16:10;;;;;;;17.00;9.70;;;;;;;10.16;59.21;100007.06;105033;1259;60646;-45
2023/04/22 04:18:38;;;;;;;16.40;8.70;;;;;;;10.32;58.37;100010.28;105091;1256;66196;-45
2023/04/22 04:21:05;;;;;;;15.10;9.10;;;;;;;10.49;57.29;100019.08;105003;1254;63084;-47
2023/04/22 04:23:34;;;;;;;13.70;8.90;;;;;;;10.62;56.91;100020.07;108558;1254;67178;-47
2023/04/22 04:26:01;;;;;;;18.40;9.60;;;;;;;10.72;55.96;100020.55;108437;1259;58917;-46
2023/04/22 04:28:31;;;;;;;12.40;8.50;;;;;;;10.81;55.56;100024.02;108472;1254;59223;-47
2023/04/22 04:30:58;;;;;;;14.00;8.90;;;;;;;10.88;55.47;100022.56;105942;1254;66028;-47
2023/04/22 04:33:26;;;;;;;13.10;9.20;;;;;;;10.94;55.22;100021.46;108588;1254;61321;-47
2023/04/22 04:35:53;;;;;;;13.10;9.70;;;;;;;10.99;55.27;100017.90;108517;1254;75539;-47
2023/04/22 04:38:23;;;;;;;12.80;9.10;;;;;;;11.03;55.26;100021.42;108483;1256;60980;-47
2023/04/22 04:40:51;;;;;;;13.90;8.10;;;;;;;11.08;55.20;100022.24;108429;1254;59025;-47
2023/04/22 04:43:24;;;;;;;14.90;9.20;;;;;;;11.18;55.07;100023.10;108545;1254;66767;-47
2023/04/22 04:45:59;;;;;;;14.30;8.50;;;;;;;11.30;54.69;100023.92;108444;1258;63745;-47
2023/04/22 04:48:34;;;;;;;17.00;9.20;;;;;;;11.42;54.06;100027.60;108424;1252;65012;-47
2023/04/22 04:51:06;;;;;;;12.30;7.80;;;;;;;11.54;53.18;100024.09;108479;1256;59746;-47
2023/04/22 04:53:37;;;;;;;15.00;9.30;;;;;;;11.64;52.20;100020.01;108508;1253;60001;-47
2023/04/22 04:56:04;;;;;;;12.70;8.40;;;;;;;11.75;51.09;100023.15;108621;1253;66330;-47
2023/04/22 04:58:30;;;;;;;12.60;8.50;;;;;;;11.83;50.75;100021.70;108573;1253;63027;-47
2023/04/22 05:01:15;;;;;;;12.80;9.20;;;;;;;11.92;50.47;100029.34;108402;1254;63716;-47
2023/04/22 05:03:42;;;;;;;12.90;8.00;;;;;;;11.98;49.38;100029.33;108468;1256;60386;-47
2023/04/22 05:06:11;;;;;;;12.00;8.60;;;;;;;12.02;49.04;100024.22;108534;1254;58857;-47
2023/04/22 05:08:38;;;;;;;13.20;8.20;;;;;;;12.05;48.88;100023.58;108488;1258;68334;-46
2023/04/22 05:11:07;;;;;;;13.20;9.40;;;;;;;12.09;48.54;100029.02;108533;1254;62350;-47
2023/04/22 05:13:34;;;;;;;13.00;8.80;;;;;;;12.14;48.81;100030.46;108431;1254;64058;-47
2023/04/22 05:16:01;;;;;;;15.30;8.90;;;;;;;12.19;48.18;100027.23;108485;1254;58543;-47
2023/04/22 05:18:28;;;;;;;14.70;8.80;;;;;;;12.23;47.34;100028.95;107489;1257;59611;-46
2023/04/22 05:20:59;;;;;;;14.10;8.10;;;;;;;12.25;47.49;100031.23;108545;1253;65008;-47
2023/04/22 05:23:26;;;;;;;14.00;9.30;;;;;;;12.27;47.60;100032.96;108475;1256;62333;-47
2023/04/22 05:25:54;;;;;;;13.00;8.80;;;;;;;12.29;47.87;100030.66;108485;1253;64823;-47
2023/04/22 05:28:23;;;;;;;12.30;8.20;;;;;;;12.33;47.62;100031.36;108355;1254;58811;-47
2023/04/22 05:30:53;;;;;;;12.20;8.30;;;;;;;12.37;47.56;100035.42;107455;1254;60628;-47
2023/04/22 05:33:20;;;;;;;16.50;10.20;;;;;;;12.40;47.30;100040.35;106964;1258;65975;-47
2023/04/22 05:35:47;;;;;;;11.70;8.90;;;;;;;12.42;46.64;100039.83;108616;1253;62397;-47
2023/04/22 05:38:14;;;;;;;13.20;8.80;;;;;;;12.44;46.80;100044.07;108511;1254;65393;-47
2023/04/22 05:40:40;;;;;;;12.40;8.90;;;;;;;12.47;47.17;100042.76;107106;1258;60521;-47
2023/04/22 05:43:09;;;;;;;12.60;8.50;;;;;;;12.50;47.13;100046.81;108503;1254;60305;-47
2023/04/22 05:45:36;;;;;;;15.00;8.80;;;;;;;12.54;47.36;100048.27;108395;1259;67993;-47
2023/04/22 05:48:03;;;;;;;12.80;8.80;;;;;;;12.57;47.31;100050.81;104663;1255;62437;-47
2023/04/22 05:50:33;;;;;;;13.80;9.20;;;;;;;12.59;47.33;100049.65;103643;1254;65651;-47
2023/04/22 05:53:05;;;;;;;13.40;8.70;;;;;;;12.62;46.49;100046.39;103936;1254;60853;-46
2023/04/22 05:55:32;;;;;;;11.50;8.50;;;;;;;12.65;46.42;100049.68;104479;1258;60528;-47
2023/04/22 05:57:58;;;;;;;13.20;8.50;;;;;;;12.66;46.46;100051.86;105029;1257;66280;-47
2023/04/22 06:00:39;;;;;;;13.50;9.30;;;;;;;12.67;46.22;100050.89;105095;1254;64090;-47
2023/04/22 06:03:13;;;;;;;14.30;9.10;;;;;;;12.68;46.07;100053.51;108534;1253;64802;-47
2023/04/22 06:05:41;;;;;;;12.90;8.80;;;;;;;12.69;45.71;100054.70;108510;1254;60506;-47
2023/04/22 06:08:08;;;;;;;12.80;9.10;;;;;;;12.73;45.89;100050.70;105800;1254;60488;-47
2023/04/22 06:10:35;;;;;;;11.90;8.60;;;;;;;12.78;46.27;100049.81;108430;1254;66940;-47
2023/04/22 06:13:01;;;;;;;14.70;10.00;;;;;;;12.86;46.10;100053.34;108505;1253;61437;-47
2023/04/22 06:15:29;;;;;;;18.50;9.90;;;;;;;12.93;45.88;100055.08;108466;1259;65200;-47
2023/04/22 06:17:56;;;;;;;13.50;9.00;;;;;;;12.99;45.34;100054.70;108539;1253;58402;-47
2023/04/22 06:20:22;;;;;;;12.40;8.80;;;;;;;13.05;45.01;100055.25;108517;1254;59026;-47
2023/04/22 06:22:49;;;;;;;15.00;9.30;;;;;;;13.11;45.18;100053.74;108553;1257;66068;-47
2023/04/22 06:25:16;;;;;;;17.80;9.60;;;;;;;13.19;45.04;100050.70;108571;1257;62341;-47
2023/04/22 06:27:43;;;;;;;13.50;9.60;;;;;;;13.28;45.21;100052.70;108641;1254;64963;-47
2023/04/22 06:30:10;;;;;;;14.30;9.10;;;;;;;13.36;45.02;100053.16;108605;1254;59502;-47
2023/04/22 06:32:39;;;;;;;12.30;8.60;;;;;;;13.45;44.81;100054.63;108477;1254;60507;-47
2023/04/22 06:35:07;;;;;;;13.00;9.60;;;;;;;13.52;44.67;100057.23;108646;1254;65018;-47
2023/04/22 06:37:34;;;;;;;12.70;9.50;;;;;;;13.61;44.79;100060.65;108513;1254;62720;-47
2023/04/22 06:40:03;;;;;;;12.00;8.50;;;;;;;13.69;44.70;100061.22;108418;1254;65339;-47
2023/04/22 06:42:53;;;;;;;13.20;8.90;;;;;;;13.79;43.94;100060.21;108591;1253;59856;-47
2023/04/22 06:45:25;;;;;;;14.80;9.60;;;;;;;13.88;43.65;100060.77;108496;1253;60482;-47
2023/04/22 06:48:01;;;;;;;17.50;9.60;;;;;;;13.97;43.12;100062.89;108470;1253;65584;-47
2023/04/22 06:50:40;;;;;;;16.70;9.90;;;;;;;14.05;42.30;100061.35;108477;1254;63163;-47
2023/04/22 06:53:08;;;;;;;11.90;9.20;;;;;;;14.13;41.93;100063.27;108568;1254;64734;-51
2023/04/22 06:55:35;;;;;;;11.50;9.20;;;;;;;14.21;41.35;100063.69;108485;1254;60600;-46
2023/04/22 06:58:02;;;;;;;13.00;9.00;;;;;;;14.31;41.77;100066.75;108362;1254;59186;-46
2023/04/22 07:00:29;;;;;;;14.90;9.30;;;;;;;14.46;42.42;100065.05;108488;1254;65992;-46
2023/04/22 07:02:57;;;;;;;15.50;9.50;;;;;;;14.60;41.83;100063.09;108488;1254;62368;-46
2023/04/22 07:05:24;;;;;;;14.30;9.00;;;;;;;14.73;41.70;100067.08;108463;1259;63697;-47
2023/04/22 07:07:50;;;;;;;14.30;9.20;;;;;;;14.86;42.06;100070.54;105287;1254;60492;-47
2023/04/22 07:10:19;;;;;;;12.90;8.70;;;;;;;14.97;41.23;100066.35;106116;1259;61192;-46
2023/04/22 07:13:06;;;;;;;13.00;8.00;;;;;;;15.07;39.38;100065.00;105098;1257;65127;-46
2023/04/22 07:15:34;;;;;;;12.70;8.40;;;;;;;15.16;39.71;100068.34;105040;1257;61807;-46
2023/04/22 07:18:01;;;;;;;11.20;8.30;;;;;;;15.22;40.00;100070.67;108478;1257;65154;-46
2023/04/22 07:20:27;;;;;;;13.60;9.10;;;;;;;15.29;40.11;100077.03;108545;1253;59009;-46
2023/04/22 07:22:54;;;;;;;11.90;8.70;;;;;;;15.35;40.06;100077.45;108535;1254;59128;-46
2023/04/22 07:25:21;;;;;;;14.50;9.10;;;;;;;15.39;40.00;100080.02;108611;1253;64968;-46
2023/04/22 07:27:47;;;;;;;11.90;8.70;;;;;;;15.43;40.26;100084.77;106187;1254;62591;-46
2023/04/22 07:30:14;;;;;;;12.30;8.40;;;;;;;15.47;40.09;100082.77;108537;1254;64030;-46
2023/04/22 07:32:41;;;;;;;15.40;9.40;;;;;;;15.53;40.06;100081.30;108683;1256;58537;-46
2023/04/22 07:35:08;;;;;;;12.50;9.30;;;;;;;15.57;39.51;100083.60;108553;1254;59724;-46
2023/04/22 07:37:35;;;;;;;15.10;9.00;;;;;;;15.65;39.00;100088.66;107378;1255;65743;-46
2023/04/22 07:40:01;;;;;;;12.00;8.50;;;;;;;15.71;38.47;100089.20;105134;1257;62392;-45
2023/04/22 07:42:28;;;;;;;13.30;8.50;;;;;;;15.78;38.62;100094.83;108478;1254;64868;-46
2023/04/22 07:44:55;;;;;;;14.50;8.70;;;;;;;15.85;38.35;100095.91;108533;1256;59738;-46
2023/04/22 07:47:22;;;;;;;13.20;8.10;;;;;;;15.91;38.38;100099.70;106793;1259;60500;-46
2023/04/22 07:49:49;;;;;;;14.00;8.40;;;;;;;15.95;37.74;100101.23;105075;1256;68115;-46
2023/04/22 07:52:15;;;;;;;13.40;8.50;;;;;;;15.97;37.93;100106.65;105075;1254;62544;-45
2023/04/22 07:54:42;;;;;;;12.70;8.20;;;;;;;15.99;37.63;100109.13;105049;1254;65234;-46
2023/04/22 07:57:09;;;;;;;11.90;8.50;;;;;;;16.01;37.93;100111.05;108491;1257;59927;-46
2023/04/22 07:59:36;;;;;;;12.50;8.80;;;;;;;16.04;38.23;100109.77;108522;1254;59183;-46
2023/04/22 08:02:03;;;;;;;11.20;8.40;;;;;;;16.08;38.19;100111.66;108606;1254;67094;-46
2023/04/22 08:04:30;;;;;;;10.80;7.60;;;;;;;16.13;38.17;100113.05;108564;1254;64843;-46
2023/04/22 08:06:57;;;;;;;10.20;8.00;;;;;;;16.20;38.27;100110.97;108549;1253;63701;-46
2023/04/22 08:09:24;;;;;;;13.90;7.60;;;;;;;16.27;38.18;100106.48;108542;1256;59680;-47
2023/04/22 08:11:51;;;;;;;10.40;7.90;;;;;;;16.33;37.51;100107.58;107041;1254;59593;-46
2023/04/22 08:14:18;;;;;;;12.50;8.30;;;;;;;16.39;36.68;100109.36;105119;1257;66284;-46
2023/04/22 08:16:44;;;;;;;14.50;8.70;;;;;;;16.45;36.96;100109.11;105141;1255;62177;-46
2023/04/22 08:19:11;;;;;;;14.30;8.50;;;;;;;16.50;37.43;100114.34;108467;1254;63993;-46
2023/04/22 08:21:38;;;;;;;11.10;7.80;;;;;;;16.56;37.39;100111.26;108522;1256;59098;-46
2023/04/22 08:24:05;;;;;;;12.00;7.40;;;;;;;16.63;37.72;100116.55;108641;1254;59965;-46
2023/04/22 08:26:32;;;;;;;15.10;8.00;;;;;;;16.72;37.84;100116.27;108581;1254;66247;-46
2023/04/22 08:28:59;;;;;;;12.10;8.40;;;;;;;16.79;36.28;100111.95;108468;1254;61710;-47
2023/04/22 08:31:26;;;;;;;10.00;7.60;;;;;;;16.81;36.67;100118.98;108656;1253;63700;-46
2023/04/22 08:33:52;;;;;;;13.00;8.10;;;;;;;16.85;36.77;100117.51;108608;1256;59593;-46
2023/04/22 08:36:21;;;;;;;12.40;8.60;;;;;;;16.89;36.35;100114.41;108475;1253;59051;-46
2023/04/22 08:38:48;;;;;;;11.00;7.60;;;;;;;16.93;37.38;100112.23;108385;1258;66424;-47
2023/04/22 08:41:17;;;;;;;14.80;7.20;;;;;;;16.99;37.73;100114.39;108514;1253;62849;-46
2023/04/22 08:43:45;;;;;;;11.30;7.30;;;;;;;17.08;37.12;100116.84;108585;1254;65076;-46
2023/04/22 08:46:14;;;;;;;12.00;7.70;;;;;;;17.18;37.02;100118.60;108531;1259;59310;-47
2023/04/22 08:48:40;;;;;;;13.80;7.30;;;;;;;17.22;36.71;100117.48;108433;1257;60114;-47
2023/04/22 08:51:07;;;;;;;13.90;7.20;;;;;;;17.24;36.28;100114.92;108620;1253;65171;-47
2023/04/22 08:53:34;;;;;;;12.70;7.40;;;;;;;17.29;36.69;100115.13;108530;1253;64146;-48
2023/04/22 08:56:01;;;;;;;16.00;6.80;;;;;;;17.37;36.72;100117.45;106012;1257;67038;-46
2023/04/22 08:58:28;;;;;;;9.50;7.30;;;;;;;17.44;36.78;100118.05;108540;1253;58387;-46
2023/04/22 09:00:55;;;;;;;10.90;6.60;;;;;;;17.48;36.89;100121.41;108474;1259;60761;-47
2023/04/22 09:03:22;;;;;;;12.90;6.90;;;;;;;17.51;36.77;100122.02;108520;1254;65210;-46
2023/04/22 09:05:48;;;;;;;11.10;7.10;;;;;;;17.53;36.81;100123.89;108464;1253;62459;-46
2023/04/22 09:08:15;;;;;;;11.30;7.00;;;;;;;17.55;35.98;100125.84;108509;1254;73830;-46
2023/04/22 09:10:42;;;;;;;10.90;7.30;;;;;;;17.52;35.88;100122.40;108375;1254;58273;-46
2023/04/22 09:13:10;;;;;;;11.00;7.80;;;;;;;17.50;36.07;100125.00;108591;1254;58689;-47
2023/04/22 09:15:37;;;;;;;11.60;7.70;;;;;;;17.44;36.17;100122.44;108621;1253;65068;-46
2023/04/22 09:18:04;;;;;;;10.60;7.30;;;;;;;17.37;36.31;100121.27;108658;1253;61803;-46
2023/04/22 09:20:32;;;;;;;12.20;7.30;;;;;;;17.32;36.31;100121.93;108563;1256;65252;-46
2023/04/22 09:23:03;;;;;;;15.00;7.20;;;;;;;17.31;36.88;100122.20;108620;1254;60229;-47
2023/04/22 09:25:32;;;;;;;12.80;7.40;;;;;;;17.34;37.29;100123.29;108607;1254;59350;-46
2023/04/22 09:27:58;;;;;;;9.10;7.10;;;;;;;17.40;36.91;100121.65;108599;1254;65822;-46
2023/04/22 09:30:33;;;;;;;13.70;7.30;;;;;;;17.49;35.70;100122.45;108609;1254;62635;-46
2023/04/22 09:33:02;;;;;;;12.40;6.60;;;;;;;17.59;35.84;100121.58;108603;1253;64714;-47
2023/04/22 09:35:30;;;;;;;14.20;7.00;;;;;;;17.67;34.52;100118.63;105309;1254;60436;-51
2023/04/22 09:37:59;;;;;;;13.20;6.70;;;;;;;17.72;34.17;100119.58;108488;1254;59526;-46
2023/04/22 09:40:26;;;;;;;11.20;6.70;;;;;;;17.77;34.00;100118.35;108564;1254;66196;-45
2023/04/22 09:42:55;;;;;;;10.50;6.10;;;;;;;17.82;33.89;100116.66;108545;1256;62267;-46
2023/04/22 09:45:38;;;;;;;11.80;6.90;;;;;;;17.89;34.03;100115.70;108443;1254;64042;-46
2023/04/22 09:48:08;;;;;;;10.90;6.60;;;;;;;17.97;33.99;100116.45;108549;1254;59164;-46
2023/04/22 09:50:36;;;;;;;13.60;6.90;;;;;;;18.02;33.56;100114.66;105773;1256;60555;-46
2023/04/22 09:53:07;;;;;;;9.30;6.10;;;;;;;18.08;32.60;100118.59;105149;1254;68499;-46
2023/04/22 09:55:40;;;;;;;9.30;5.80;;;;;;;18.13;31.41;100115.68;105167;1257;62370;-46
2023/04/22 09:58:14;;;;;;;10.30;6.10;;;;;;;18.17;32.27;100118.86;105089;1259;64299;-46
2023/04/22 10:00:53;;;;;;;13.70;6.30;;;;;;;18.23;32.29;100113.54;108588;1256;58802;-46
2023/04/22 10:03:19;;;;;;;10.50;6.60;;;;;;;18.29;31.96;100113.64;108632;1254;60873;-47
2023/04/22 10:05:46;;;;;;;8.90;5.90;;;;;;;18.32;32.31;100115.38;108648;1254;66614;-46
2023/04/22 10:08:14;;;;;;;9.90;6.30;;;;;;;18.39;32.42;100114.58;105780;1254;64327;-52
2023/04/22 10:10:41;;;;;;;10.30;6.80;;;;;;;18.45;31.58;100111.43;108586;1257;64127;-46
2023/04/22 10:13:08;;;;;;;9.00;6.60;;;;;;;18.49;30.93;100108.59;108549;1254;59453;-46
2023/04/22 10:15:47;;;;;;;10.90;6.50;;;;;;;18.56;31.63;100112.92;108554;1254;58353;-47
2023/04/22 10:18:17;;;;;;;9.80;6.80;;;;;;;18.65;30.93;100113.67;108647;1253;68630;-46
2023/04/22 10:20:44;;;;;;;8.70;6.00;;;;;;;18.73;31.44;100113.23;108509;1257;63494;-46
2023/04/22 10:23:17;;;;;;;10.00;6.90;;;;;;;18.81;31.63;100116.01;106873;1254;64674;-46
2023/04/22 10:25:48;;;;;;;8.70;5.90;;;;;;;18.91;32.19;100114.33;108560;1253;60316;-46
2023/04/22 10:28:15;;;;;;;9.30;6.20;;;;;;;19.00;30.72;100118.76;108577;1254;59989;-46
2023/04/22 10:30:42;;;;;;;14.80;6.10;;;;;;;19.07;30.06;100117.04;108557;1259;65983;-47
2023/04/22 10:33:27;;;;;;;10.10;5.30;;;;;;;19.11;28.61;100115.24;108547;1254;62488;-47
2023/04/22 10:36:16;;;;;;;13.60;5.50;;;;;;;19.15;27.07;100112.95;108636;1254;64801;-46
2023/04/22 10:38:49;;;;;;;8.70;5.40;;;;;;;19.17;28.01;100112.33;107197;1258;60107;-47
2023/04/22 10:41:15;;;;;;;11.10;6.10;;;;;;;19.21;28.31;100113.00;108446;1254;217580;-47
2023/04/22 10:56:16;;;;;;;8.90;5.40;;;;;;;19.37;26.32;100111.95;102623;1288;604904;-46
2023/04/22 10:58:45;;;;;;;10.20;6.30;;;;;;;19.84;25.94;100114.27;103941;1267;94589;-47
2023/04/22 11:01:13;;;;;;;8.10;5.90;;;;;;;19.89;25.77;100115.27;104173;1267;60040;-47
2023/04/22 11:03:42;;;;;;;8.50;6.00;;;;;;;19.87;25.58;100116.77;104146;1270;64211;-46
2023/04/22 11:06:15;;;;;;;9.50;6.00;;;;;;;19.80;25.98;100120.31;107011;1269;62542;-45
2023/04/22 11:08:47;;;;;;;10.20;6.30;;;;;;;19.69;26.00;100120.21;107708;1267;63768;-46
2023/04/22 11:11:16;;;;;;;10.40;5.70;;;;;;;19.55;25.51;100122.47;107749;1265;61681;-45
2023/04/22 11:13:46;;;;;;;11.50;6.40;;;;;;;19.43;26.40;100123.81;107672;1269;60089;-45
2023/04/22 11:16:14;;;;;;;11.30;6.30;;;;;;;19.35;27.05;100121.82;107613;1266;65217;-46
2023/04/22 11:18:45;;;;;;;9.20;5.70;;;;;;;19.30;27.66;100127.10;107657;1265;63571;-46
2023/04/22 11:21:13;;;;;;;9.40;6.00;;;;;;;19.29;28.41;100129.10;107478;1269;63549;-47
2023/04/22 11:23:49;;;;;;;8.10;6.00;;;;;;;19.35;28.15;100128.02;107667;1266;60243;-46
2023/04/22 11:26:17;;;;;;;11.80;5.70;;;;;;;19.44;27.71;100128.25;104725;1269;59455;-46
2023/04/22 11:28:46;;;;;;;9.00;6.10;;;;;;;19.58;28.18;100127.05;102986;1270;66721;-46
2023/04/22 11:31:14;;;;;;;7.40;5.50;;;;;;;19.75;27.66;100133.96;107768;1265;62365;-47
2023/04/22 11:33:42;;;;;;;8.70;5.60;;;;;;;19.86;27.17;100133.13;107674;1267;65322;-47